aviador You're here:

K2V5 Decoded Metar

in
Report Time2017-05-28 06:35:00
UTC Time2017-05-28 06:46:38
Flight Rules vfr VFR
Wind260° at 07 kt
W.Rank260° ranks 2
Current wind is above 260° avg. (6.2)
Visibility9999 m
Phenomena:N/A
Clouds:N/A
CeilingNone
Temp07°C
Dew Point07°C (100% RH)
AAT3.8°C
QNH1021 hPa
Raw Report
K2V5 280635Z AUTO 26007KT 10SM CLR 07/07 A3016 RMK AO2=

Extra information for K2V5:More info

Social comments